Monday, August 20, 2018, 5:16 AM GMT
Back to Local

CWVU, Brier Island, N. S.

Location: , , Canada Lat: 44.286
Local Time: 5:16 AM GMT ( 5:16 GMT) Lon: -66.347
Time Zone: GMT Elev: 52 ft

Show me the last for .
Show Coded

Time T Td Feel RH Dir Speed Gust Alt SLP Vis Weather Sky Remarks
2018-08-20 04:00 58 56 - 93 50° 5 - - 30.16 0 None
2018-08-20 03:00 58 57 - 96 350° 3 - - 30.16 0 None
2018-08-20 02:00 56 53 - 89 60° 7 - - 30.16 0 None
2018-08-20 01:00 56 55 - 94 20° 7 - - 30.15 0 None
2018-08-20 00:00 57 55 - 92 40° 5 - - 30.13 0 None
2018-08-19 23:00 57 55 - 91 30° 10 - - 30.11 0 None
2018-08-19 22:00 59 56 - 88 20° 15 - - 30.10 0 None
2018-08-19 21:00 60 56 - 84 10° 15 - - 30.09 0 Peak wind: 20 mph (18 kts) from 10° at 02 min
2018-08-19 20:00 61 56 - 84 20° 16 - - 30.08 0 Peak wind: 23 mph (20 kts) from 20° at 03 min
2018-08-19 19:00 61 57 - 86 10° 20 - - 30.07 0 Peak wind: 26 mph (23 kts) from 10° at 01 min
2018-08-19 18:00 62 58 - 86 10° 23 - - 30.06 0 Peak wind: 26 mph (23 kts) from 0° at 55 min
2018-08-19 17:00 60 57 - 91 10° 20 - - 30.06 0 Peak wind: 25 mph (22 kts) from 10° at 00 min
2018-08-19 16:00 59 57 - 92 10° 20 - - 30.05 0 Peak wind: 24 mph (21 kts) from 0° at 53 min
2018-08-19 15:00 59 56 - 90 10° 18 - - 30.05 0 Peak wind: 21 mph (19 kts) from 350° at 00 min
2018-08-19 14:00 59 56 - 91 10° 16 - - 30.04 0 Peak wind: 21 mph (19 kts) from 10° at 13 min
2018-08-19 13:00 58 56 - 93 10° 16 - - 30.02 0 None
2018-08-19 12:00 57 56 - 96 30° 9 - - 30.01 0 None
2018-08-19 11:00 57 56 - 97 10° 12 - - 29.99 0 None
2018-08-19 10:00 56 56 - 98 360° 9 - - 29.97 0 None
2018-08-19 09:00 56 56 - 97 360° 10 - - 29.95 0 None
2018-08-19 08:00 57 56 - 97 360° 9 - - 29.93 0 None
2018-08-19 07:00 57 56 - 97 360° 10 - - 29.92 0 None
2018-08-19 06:00 57 56 - 98 360° 12 - - 29.90 0 None

Support USWX by starting your Amazon purchase here.